WSSL/XSP METAR and TAF weather

Enter ICAO airport designator
Station Type Date Time Source
WSSL METAR 2020/07/03 12:00 UTC NOAA

WSSL 031200Z 15004KT 100V170 9999 FEW016 FEW020TCU SCT280 30/23 Q1009


Station Type Date Time Source
WSSL Decoded METAR 2020/07/03 12:00 UTC NOAA

Station name not available
Jul 03, 2020 - 08:00 AM EDT / 2020.07.03 1200 UTC
Wind: from the SSE (150 degrees) at 5 MPH (4 KT) (direction variable):0
Visibility: greater than 7 mile(s):0
Sky conditions: partly cloudy
Weather: Towering cumulus clouds observed
Temperature: 86 F (30 C)
Heat index: 93.4 F (34.1 C):1
Dew Point: 73 F (23 C)
Relative Humidity: 66%
Pressure (altimeter): 29.80 in. Hg (1009 hPa)
ob: WSSL 031200Z 15004KT 100V170 9999 FEW016 FEW020TCU SCT280 30/23 Q1009
cycle: 12

Station Type Date Time Source
WSSL TAF 2020/07/03 12:09 UTC NOAA

TAF WSSL 031100Z 0312/0418 16008KT 9999 FEW015 SCT020
TEMPO 0405/0408 3000 TSRA FEW012CB BKN015

Example: see airport list